createdAt,value
2023-04-22T00:01:29.317Z,11.10
2023-04-22T00:03:59.140Z,11.10
2023-04-22T00:06:27.789Z,11.00
2023-04-22T00:08:56.018Z,11.00
2023-04-22T00:11:24.453Z,11.00
2023-04-22T00:13:52.717Z,11.00
2023-04-22T00:16:21.551Z,10.90
2023-04-22T00:18:50.101Z,10.90
2023-04-22T00:21:19.769Z,10.80
2023-04-22T00:23:47.998Z,10.80
2023-04-22T00:26:16.351Z,10.70
2023-04-22T00:28:44.700Z,10.70
2023-04-22T00:31:13.019Z,10.70
2023-04-22T00:33:41.427Z,10.60
2023-04-22T00:36:09.907Z,10.60
2023-04-22T00:38:39.830Z,10.60
2023-04-22T00:41:09.238Z,10.50
2023-04-22T00:43:37.670Z,10.40
2023-04-22T00:46:06.155Z,10.40
2023-04-22T00:48:34.448Z,10.30
2023-04-22T00:51:02.906Z,10.30
2023-04-22T00:53:31.153Z,10.20
2023-04-22T00:56:00.984Z,10.10
2023-04-22T00:58:30.627Z,10.00
2023-04-22T01:00:59.698Z,9.90
2023-04-22T01:03:30.537Z,9.80
2023-04-22T01:05:59.234Z,9.80
2023-04-22T01:08:30.675Z,9.70
2023-04-22T01:11:00.605Z,9.60
2023-04-22T01:13:33.373Z,9.50
2023-04-22T01:16:04.244Z,9.40
2023-04-22T01:18:33.410Z,9.30
2023-04-22T01:21:02.399Z,9.20
2023-04-22T01:23:32.741Z,9.20
2023-04-22T01:26:01.194Z,9.10
2023-04-22T01:28:30.378Z,9.10
2023-04-22T01:30:58.760Z,9.10
2023-04-22T01:33:27.463Z,9.00
2023-04-22T01:35:56.016Z,9.00
2023-04-22T01:38:24.876Z,8.90
2023-04-22T01:40:57.601Z,8.90
2023-04-22T01:43:26.072Z,8.90
2023-04-22T01:45:55.114Z,8.80
2023-04-22T01:48:23.548Z,8.80
2023-04-22T01:50:52.379Z,8.70
2023-04-22T01:53:20.718Z,8.70
2023-04-22T01:55:49.097Z,8.70
2023-04-22T01:58:18.808Z,8.70
2023-04-22T02:00:47.728Z,8.60
2023-04-22T02:03:16.185Z,8.60
2023-04-22T02:05:44.678Z,8.50
2023-04-22T02:08:13.681Z,8.50
2023-04-22T02:10:42.075Z,8.40
2023-04-22T02:13:10.390Z,8.40
2023-04-22T02:15:40.523Z,8.40
2023-04-22T02:18:10.231Z,8.40
2023-04-22T02:20:38.720Z,8.40
2023-04-22T02:23:07.679Z,8.40
2023-04-22T02:25:36.146Z,8.40
2023-04-22T02:28:04.455Z,8.40
2023-04-22T02:30:33.027Z,8.40
2023-04-22T02:33:03.380Z,8.40
2023-04-22T02:35:31.914Z,8.40
2023-04-22T02:38:00.215Z,8.30
2023-04-22T02:40:28.542Z,8.30
2023-04-22T02:42:56.901Z,8.20
2023-04-22T02:45:25.318Z,8.30
2023-04-22T02:47:53.596Z,8.20
2023-04-22T02:50:23.246Z,8.20
2023-04-22T02:52:52.052Z,8.20
2023-04-22T02:55:21.968Z,8.20
2023-04-22T02:57:50.656Z,8.20
2023-04-22T03:00:18.928Z,8.10
2023-04-22T03:02:47.366Z,8.10
2023-04-22T03:05:16.702Z,8.00
2023-04-22T03:07:47.532Z,7.90
2023-04-22T03:10:17.433Z,7.90
2023-04-22T03:12:46.019Z,7.80
2023-04-22T03:15:15.286Z,7.70
2023-04-22T03:17:43.702Z,7.70
2023-04-22T03:20:15.237Z,7.60
2023-04-22T03:22:44.041Z,7.60
2023-04-22T03:25:15.584Z,7.50
2023-04-22T03:27:49.237Z,7.50
2023-04-22T03:30:17.557Z,7.40
2023-04-22T03:32:46.698Z,7.40
2023-04-22T03:35:25.086Z,7.40
2023-04-22T03:37:54.059Z,7.40
2023-04-22T03:40:29.726Z,7.30
2023-04-22T03:42:58.208Z,7.30
2023-04-22T03:45:26.781Z,7.20
2023-04-22T03:48:09.660Z,7.20
2023-04-22T03:50:43.192Z,7.10
2023-04-22T03:53:11.535Z,7.10
2023-04-22T03:55:42.150Z,7.00
2023-04-22T03:58:10.847Z,7.00
2023-04-22T04:00:39.493Z,7.00
2023-04-22T04:03:12.445Z,6.90
2023-04-22T04:05:41.105Z,6.90
2023-04-22T04:08:10.335Z,6.80
2023-04-22T04:10:38.692Z,6.80
2023-04-22T04:13:08.883Z,6.80
2023-04-22T04:15:47.262Z,6.80
2023-04-22T04:18:17.579Z,6.70
2023-04-22T04:20:47.026Z,6.70
2023-04-22T04:23:15.389Z,6.70
2023-04-22T04:25:44.249Z,6.60
2023-04-22T04:28:17.694Z,6.60
2023-04-22T04:30:46.394Z,6.50
2023-04-22T04:33:16.759Z,6.50
2023-04-22T04:35:48.089Z,6.50
2023-04-22T04:38:20.089Z,6.50
2023-04-22T04:40:50.000Z,6.40
2023-04-22T04:43:25.782Z,6.40
2023-04-22T04:46:01.024Z,6.40
2023-04-22T04:48:36.410Z,6.40
2023-04-22T04:51:09.496Z,6.40
2023-04-22T04:53:43.441Z,6.40
2023-04-22T04:56:12.931Z,6.50
2023-04-22T04:58:42.643Z,6.50
2023-04-22T05:01:23.917Z,6.50
2023-04-22T05:03:53.601Z,6.50
2023-04-22T05:06:22.644Z,6.50
2023-04-22T05:08:58.659Z,6.50
2023-04-22T05:11:27.230Z,6.60
2023-04-22T05:13:58.194Z,6.60
2023-04-22T05:16:32.327Z,6.70
2023-04-22T05:19:01.110Z,6.80
2023-04-22T05:21:29.615Z,6.90
2023-04-22T05:23:58.205Z,7.00
2023-04-22T05:26:27.044Z,7.10
2023-04-22T05:28:56.890Z,7.10
2023-04-22T05:31:25.293Z,7.20
2023-04-22T05:33:56.842Z,7.20
2023-04-22T05:36:29.799Z,7.30
2023-04-22T05:38:59.973Z,7.30
2023-04-22T05:41:29.933Z,7.30
2023-04-22T05:44:00.891Z,7.40
2023-04-22T05:46:31.114Z,7.40
2023-04-22T05:48:59.742Z,7.40
2023-04-22T05:51:47.531Z,7.50
2023-04-22T05:54:18.967Z,7.50
2023-04-22T05:56:47.644Z,7.60
2023-04-22T05:59:19.530Z,7.70
2023-04-22T06:01:48.792Z,7.80
2023-04-22T06:04:21.619Z,7.90
2023-04-22T06:06:53.675Z,8.00
2023-04-22T06:09:22.271Z,8.10
2023-04-22T06:11:50.623Z,8.30
2023-04-22T06:14:20.330Z,8.40
2023-04-22T06:16:50.409Z,8.60
2023-04-22T06:19:18.943Z,8.70
2023-04-22T06:21:47.423Z,8.90
2023-04-22T06:24:15.803Z,9.00
2023-04-22T06:26:44.195Z,9.10
2023-04-22T06:29:12.477Z,9.30
2023-04-22T06:31:43.255Z,9.40
2023-04-22T06:34:11.757Z,9.60
2023-04-22T06:36:40.477Z,9.80
2023-04-22T06:39:11.008Z,10.00
2023-04-22T06:42:02.604Z,10.30
2023-04-22T06:44:48.090Z,10.50
2023-04-22T06:47:28.774Z,10.80
2023-04-22T06:50:12.041Z,11.00
2023-04-22T06:52:47.861Z,11.20
2023-04-22T06:55:16.380Z,11.40
2023-04-22T06:57:44.729Z,11.60
2023-04-22T07:00:14.275Z,11.80
2023-04-22T07:02:44.665Z,12.00
2023-04-22T07:05:13.207Z,12.10
2023-04-22T07:07:41.860Z,12.20
2023-04-22T07:10:14.837Z,12.40
2023-04-22T07:12:53.088Z,12.50
2023-04-22T07:15:21.514Z,12.60
2023-04-22T07:17:51.211Z,12.70
2023-04-22T07:20:19.567Z,12.80
2023-04-22T07:22:47.847Z,12.90
2023-04-22T07:25:16.197Z,13.00
2023-04-22T07:27:44.554Z,13.10
2023-04-22T07:30:14.009Z,13.20
2023-04-22T07:32:42.429Z,13.40
2023-04-22T07:35:12.304Z,13.50
2023-04-22T07:37:40.580Z,13.60
2023-04-22T07:40:11.860Z,13.70
2023-04-22T07:42:40.438Z,13.80
2023-04-22T07:45:09.561Z,13.90
2023-04-22T07:47:38.089Z,14.00
2023-04-22T07:50:07.557Z,14.20
2023-04-22T07:52:37.405Z,14.30
2023-04-22T07:55:07.266Z,14.50
2023-04-22T07:57:38.528Z,14.60
2023-04-22T08:00:08.903Z,14.80
2023-04-22T08:02:44.139Z,14.90
2023-04-22T08:05:13.130Z,15.00
2023-04-22T08:07:43.246Z,15.10
2023-04-22T08:10:11.994Z,15.10
2023-04-22T08:12:40.301Z,15.20
2023-04-22T08:15:09.712Z,15.30
2023-04-22T08:17:38.218Z,15.30
2023-04-22T08:20:08.290Z,15.40
2023-04-22T08:22:36.761Z,15.50
2023-04-22T08:25:08.539Z,15.60
2023-04-22T08:27:36.992Z,15.70
2023-04-22T08:30:06.738Z,15.80
2023-04-22T08:32:36.479Z,15.90
2023-04-22T08:35:05.630Z,15.90
2023-04-22T08:37:35.020Z,16.00
2023-04-22T08:40:04.906Z,16.10
2023-04-22T08:42:34.676Z,16.10
2023-04-22T08:45:04.167Z,16.20
2023-04-22T08:47:33.943Z,16.30
2023-04-22T08:50:04.364Z,16.30
2023-04-22T08:52:33.152Z,16.30
2023-04-22T08:55:02.106Z,16.40
2023-04-22T08:57:34.839Z,16.50
2023-04-22T09:00:04.779Z,16.60
2023-04-22T09:02:34.578Z,16.70
2023-04-22T09:05:04.329Z,16.80
2023-04-22T09:07:33.479Z,16.90
2023-04-22T09:10:01.784Z,17.00
2023-04-22T09:12:30.114Z,17.10
2023-04-22T09:15:00.941Z,17.30
2023-04-22T09:17:33.716Z,17.40
2023-04-22T09:20:03.446Z,17.50
2023-04-22T09:22:41.157Z,17.60
2023-04-22T09:25:17.526Z,17.70
2023-04-22T09:27:50.418Z,17.90
2023-04-22T09:30:24.634Z,18.00
2023-04-22T09:32:55.269Z,18.20
2023-04-22T09:35:28.700Z,18.30
2023-04-22T09:37:57.472Z,18.50
2023-04-22T09:40:26.734Z,18.70
2023-04-22T09:42:56.664Z,18.80
2023-04-22T09:45:32.042Z,19.00
2023-04-22T09:48:09.904Z,19.20
2023-04-22T09:50:39.022Z,19.40
2023-04-22T09:53:09.056Z,19.70
2023-04-22T09:55:40.381Z,20.00
2023-04-22T09:58:11.000Z,20.40
2023-04-22T10:00:43.143Z,20.80
2023-04-22T10:03:11.719Z,21.00
2023-04-22T10:05:41.026Z,21.20
2023-04-22T10:08:10.870Z,21.30
2023-04-22T10:10:40.120Z,21.60
2023-04-22T10:13:13.223Z,21.80
2023-04-22T10:15:45.520Z,22.00
2023-04-22T10:18:17.777Z,22.10
2023-04-22T10:20:47.478Z,22.20
2023-04-22T10:23:19.749Z,22.20
2023-04-22T10:25:51.440Z,22.20
2023-04-22T10:28:21.737Z,22.30
2023-04-22T10:30:51.651Z,22.40
2023-04-22T10:33:39.959Z,22.40
2023-04-22T10:36:11.274Z,22.40
2023-04-22T10:38:41.454Z,22.40
2023-04-22T10:41:15.592Z,22.60
2023-04-22T10:43:45.578Z,22.80
2023-04-22T10:46:52.251Z,22.90
2023-04-22T10:49:23.779Z,22.90
2023-04-22T10:51:53.500Z,22.70
2023-04-22T10:54:59.961Z,22.60
2023-04-22T10:57:40.408Z,22.50
2023-04-22T11:00:45.653Z,22.50
2023-04-22T11:03:27.715Z,22.60
2023-04-22T11:06:16.407Z,22.90
2023-04-22T11:08:48.981Z,23.50
2023-04-22T11:11:20.120Z,24.10
2023-04-22T11:13:51.883Z,24.00
2023-04-22T11:16:23.547Z,24.10
2023-04-22T11:18:52.434Z,24.50
2023-04-22T11:21:22.449Z,25.10
2023-04-22T11:23:54.476Z,25.80
2023-04-22T11:26:35.252Z,26.50
2023-04-22T11:29:05.117Z,27.20
2023-04-22T11:31:33.594Z,27.70
2023-04-22T11:34:02.095Z,27.90
2023-04-22T11:36:33.504Z,28.00
2023-04-22T11:39:01.804Z,28.30
2023-04-22T11:41:31.468Z,28.60
2023-04-22T11:44:01.604Z,29.00
2023-04-22T11:46:31.506Z,29.50
2023-04-22T11:49:13.797Z,29.90
2023-04-22T11:51:55.121Z,29.50
2023-04-22T11:54:32.261Z,29.30
2023-04-22T11:57:03.617Z,29.30
2023-04-22T11:59:31.882Z,28.80
2023-04-22T12:02:00.405Z,28.50
2023-04-22T12:04:28.784Z,28.50
2023-04-22T12:06:58.458Z,28.70
2023-04-22T12:09:26.838Z,29.10
2023-04-22T12:11:55.217Z,29.80
2023-04-22T12:14:31.800Z,30.80
2023-04-22T12:17:00.402Z,31.60
2023-04-22T12:19:28.768Z,32.40
2023-04-22T12:21:58.828Z,32.70
2023-04-22T12:24:29.655Z,32.90
2023-04-22T12:26:58.759Z,33.00
2023-04-22T12:29:33.455Z,33.10
2023-04-22T12:32:02.211Z,33.10
2023-04-22T12:34:30.668Z,33.20
2023-04-22T12:37:00.773Z,33.20
2023-04-22T12:39:29.307Z,33.20
2023-04-22T12:41:58.097Z,33.20
2023-04-22T12:44:26.474Z,33.00
2023-04-22T12:46:54.915Z,32.90
2023-04-22T12:49:23.290Z,32.50
2023-04-22T12:51:52.345Z,32.00
2023-04-22T12:54:23.010Z,32.00
2023-04-22T12:56:52.289Z,32.30
2023-04-22T12:59:21.176Z,32.20
2023-04-22T13:01:50.225Z,32.20
2023-04-22T13:04:22.434Z,31.50
2023-04-22T13:06:56.367Z,30.60
2023-04-22T13:09:27.569Z,29.60
2023-04-22T13:11:56.056Z,28.70
2023-04-22T13:14:24.825Z,27.90
2023-04-22T13:16:56.300Z,27.40
2023-04-22T13:19:27.034Z,26.90
2023-04-22T13:21:55.395Z,26.50
2023-04-22T13:24:23.689Z,26.20
2023-04-22T13:26:53.598Z,25.80
2023-04-22T13:29:21.981Z,25.70
2023-04-22T13:31:50.788Z,26.00
2023-04-22T13:34:19.316Z,26.80
2023-04-22T13:36:47.798Z,27.30
2023-04-22T13:39:16.140Z,27.40
2023-04-22T13:41:44.982Z,27.20
2023-04-22T13:44:15.422Z,27.10
2023-04-22T13:46:44.147Z,26.80
2023-04-22T13:49:12.732Z,26.80
2023-04-22T13:51:41.205Z,26.60
2023-04-22T13:54:09.505Z,26.40
2023-04-22T13:56:37.874Z,26.10
2023-04-22T13:59:06.291Z,25.80
2023-04-22T14:01:37.811Z,25.50
2023-04-22T14:04:06.423Z,25.30
2023-04-22T14:06:35.165Z,25.30
2023-04-22T14:09:04.422Z,25.30
2023-04-22T14:11:33.766Z,25.40
2023-04-22T14:14:02.050Z,25.40
2023-04-22T14:16:30.419Z,25.20
2023-04-22T14:19:02.773Z,24.90
2023-04-22T14:21:31.365Z,24.60
2023-04-22T14:23:59.758Z,24.30
2023-04-22T14:26:28.396Z,24.10
2023-04-22T14:28:56.917Z,23.90
2023-04-22T14:31:26.173Z,23.60
2023-04-22T14:33:54.698Z,23.50
2023-04-22T14:36:24.534Z,23.60
2023-04-22T14:38:53.023Z,23.70
2023-04-22T14:41:21.450Z,23.90
2023-04-22T14:43:49.875Z,24.20
2023-04-22T14:46:18.315Z,24.30
2023-04-22T14:48:46.812Z,24.40
2023-04-22T14:51:15.072Z,24.40
2023-04-22T14:53:44.721Z,24.50
2023-04-22T14:56:13.081Z,24.30
2023-04-22T14:58:41.504Z,24.10
2023-04-22T15:01:10.250Z,23.70
2023-04-22T15:03:38.857Z,23.30
2023-04-22T15:06:07.680Z,23.00
2023-04-22T15:08:36.603Z,22.80
2023-04-22T15:11:06.626Z,22.60
2023-04-22T15:13:34.971Z,22.40
2023-04-22T15:16:03.349Z,22.30
2023-04-22T15:18:31.649Z,22.30
2023-04-22T15:20:59.917Z,22.30
2023-04-22T15:23:28.205Z,22.20
2023-04-22T15:25:56.519Z,22.10
2023-04-22T15:28:26.502Z,22.10
2023-04-22T15:30:54.916Z,22.00
2023-04-22T15:33:23.246Z,21.90
2023-04-22T15:35:51.634Z,22.00
2023-04-22T15:38:19.917Z,21.90
2023-04-22T15:40:48.266Z,21.90
2023-04-22T15:43:16.652Z,21.90
2023-04-22T15:45:46.288Z,21.90
2023-04-22T15:48:14.586Z,21.80
2023-04-22T15:50:42.851Z,21.70
2023-04-22T15:53:11.236Z,21.60
2023-04-22T15:55:39.918Z,21.50
2023-04-22T15:58:08.247Z,21.40
2023-04-22T16:00:37.150Z,21.30
2023-04-22T16:03:06.937Z,21.20
2023-04-22T16:05:36.165Z,21.10
2023-04-22T16:08:04.399Z,21.00
2023-04-22T16:10:32.645Z,20.90
2023-04-22T16:13:01.043Z,20.80
2023-04-22T16:15:29.580Z,20.60
2023-04-22T16:17:58.190Z,20.50
2023-04-22T16:20:27.810Z,20.30
2023-04-22T16:22:56.393Z,20.20
2023-04-22T16:25:24.691Z,20.10
2023-04-22T16:27:52.864Z,20.10
2023-04-22T16:30:21.110Z,20.00
2023-04-22T16:32:50.099Z,19.90
2023-04-22T16:35:18.412Z,19.80
2023-04-22T16:37:48.325Z,19.70
2023-04-22T16:40:16.777Z,19.60
2023-04-22T16:42:45.037Z,19.50
2023-04-22T16:45:13.453Z,19.30
2023-04-22T16:47:41.863Z,18.90
2023-04-22T16:50:12.311Z,18.30
2023-04-22T16:52:40.558Z,17.80
2023-04-22T16:55:10.844Z,17.30
2023-04-22T16:57:39.345Z,16.90
2023-04-22T17:00:08.855Z,16.70
2023-04-22T17:02:37.273Z,16.50
2023-04-22T17:05:06.710Z,16.40
2023-04-22T17:07:35.045Z,16.40
2023-04-22T17:10:03.440Z,16.40
2023-04-22T17:12:33.186Z,16.40
2023-04-22T17:15:01.613Z,16.50
2023-04-22T17:17:30.074Z,16.50
2023-04-22T17:19:58.401Z,16.50
2023-04-22T17:22:26.637Z,16.40
2023-04-22T17:24:56.693Z,16.40
2023-04-22T17:27:24.882Z,16.30
2023-04-22T17:29:54.583Z,16.30
2023-04-22T17:32:22.904Z,16.20
2023-04-22T17:34:51.276Z,16.30
2023-04-22T17:37:19.628Z,16.30
2023-04-22T17:39:47.999Z,16.30
2023-04-22T17:42:17.421Z,16.40
2023-04-22T17:44:46.133Z,16.40
2023-04-22T17:47:15.811Z,16.50
2023-04-22T17:49:44.327Z,16.50
2023-04-22T17:52:12.673Z,16.50
2023-04-22T17:54:41.652Z,16.60
2023-04-22T17:57:11.717Z,16.50
2023-04-22T17:59:40.243Z,16.50
2023-04-22T18:02:11.530Z,16.50
2023-04-22T18:04:41.614Z,16.50
2023-04-22T18:07:10.273Z,16.50
2023-04-22T18:09:39.053Z,16.40
2023-04-22T18:12:07.954Z,16.20
2023-04-22T18:14:36.265Z,16.00
2023-04-22T18:17:04.627Z,15.60
2023-04-22T18:19:32.923Z,15.30
2023-04-22T18:22:02.894Z,15.10
2023-04-22T18:24:31.413Z,14.80
2023-04-22T18:26:59.769Z,14.60
2023-04-22T18:29:28.066Z,14.50
2023-04-22T18:31:57.290Z,14.30
2023-04-22T18:34:25.629Z,14.30
2023-04-22T18:36:54.015Z,14.20
2023-04-22T18:39:23.570Z,14.20
2023-04-22T18:41:52.326Z,14.20
2023-04-22T18:44:21.225Z,14.30
2023-04-22T18:46:50.425Z,14.30
2023-04-22T18:49:18.760Z,14.40
2023-04-22T18:51:49.257Z,14.40
2023-04-22T18:54:17.673Z,14.40
2023-04-22T18:56:47.282Z,14.50
2023-04-22T18:59:15.479Z,14.50
2023-04-22T19:01:44.050Z,14.50
2023-04-22T19:04:12.519Z,14.50
2023-04-22T19:06:41.460Z,14.50
2023-04-22T19:09:09.864Z,14.50
2023-04-22T19:11:38.469Z,14.60
2023-04-22T19:14:08.904Z,14.60
2023-04-22T19:16:37.154Z,14.60
2023-04-22T19:19:05.372Z,14.50
2023-04-22T19:21:33.798Z,14.60
2023-04-22T19:24:02.110Z,14.60
2023-04-22T19:26:31.135Z,14.60
2023-04-22T19:28:59.409Z,14.50
2023-04-22T19:31:30.486Z,14.60
2023-04-22T19:33:59.308Z,14.60
2023-04-22T19:36:28.182Z,14.50
2023-04-22T19:38:56.705Z,14.50
2023-04-22T19:41:25.153Z,14.50
2023-04-22T19:43:55.581Z,14.50
2023-04-22T19:46:23.778Z,14.50
2023-04-22T19:48:54.226Z,14.50
2023-04-22T19:51:23.264Z,14.50
2023-04-22T19:53:51.751Z,14.40
2023-04-22T19:56:20.349Z,14.50
2023-04-22T19:58:49.407Z,14.40
2023-04-22T20:01:18.010Z,14.40
2023-04-22T20:03:47.461Z,14.40
2023-04-22T20:06:17.951Z,14.30
2023-04-22T20:08:48.047Z,14.40
2023-04-22T20:11:16.640Z,14.40
2023-04-22T20:13:47.926Z,14.40
2023-04-22T20:16:19.198Z,14.40
2023-04-22T20:18:48.453Z,14.40
2023-04-22T20:21:19.835Z,14.40
2023-04-22T20:23:50.874Z,14.30
2023-04-22T20:26:19.987Z,14.30
2023-04-22T20:28:51.900Z,14.30
2023-04-22T20:31:23.303Z,14.30
2023-04-22T20:33:52.063Z,14.30
2023-04-22T20:36:22.542Z,14.30
2023-04-22T20:38:52.354Z,14.30
2023-04-22T20:41:21.202Z,14.20
2023-04-22T20:43:49.527Z,14.20
2023-04-22T20:46:18.161Z,14.20
2023-04-22T20:48:47.779Z,14.20
2023-04-22T20:51:16.735Z,14.10
2023-04-22T20:53:48.788Z,14.10
2023-04-22T20:56:16.951Z,14.10
2023-04-22T20:58:45.100Z,14.10
2023-04-22T21:01:16.256Z,14.10
2023-04-22T21:03:51.779Z,14.10
2023-04-22T21:06:21.994Z,14.00
2023-04-22T21:08:52.057Z,14.00
2023-04-22T21:11:20.788Z,13.90
2023-04-22T21:13:49.819Z,13.90
2023-04-22T21:16:20.479Z,13.90
2023-04-22T21:18:49.436Z,13.80
2023-04-22T21:21:20.558Z,13.80
2023-04-22T21:23:49.171Z,13.80
2023-04-22T21:26:19.739Z,13.80
2023-04-22T21:28:49.776Z,13.80
2023-04-22T21:31:18.522Z,13.70
2023-04-22T21:33:46.864Z,13.80
2023-04-22T21:36:15.095Z,13.70
2023-04-22T21:38:43.531Z,13.70
2023-04-22T21:41:11.794Z,13.70
2023-04-22T21:43:41.331Z,13.70
2023-04-22T21:46:09.915Z,13.70
2023-04-22T21:48:38.182Z,13.70
2023-04-22T21:51:06.472Z,13.70
2023-04-22T21:53:34.941Z,13.70
2023-04-22T21:56:03.221Z,13.70
2023-04-22T21:58:31.426Z,13.80
2023-04-22T22:01:01.022Z,13.80
2023-04-22T22:03:29.470Z,13.80
2023-04-22T22:05:58.165Z,13.70
2023-04-22T22:08:26.945Z,13.70
2023-04-22T22:10:55.582Z,13.70
2023-04-22T22:13:23.853Z,13.70
2023-04-22T22:15:54.891Z,13.60
2023-04-22T22:18:25.027Z,13.60
2023-04-22T22:20:53.801Z,13.60
2023-04-22T22:23:22.327Z,13.60
2023-04-22T22:25:50.666Z,13.60
2023-04-22T22:28:18.870Z,13.60
2023-04-22T22:30:47.117Z,13.60
2023-04-22T22:33:15.468Z,13.60
2023-04-22T22:35:45.325Z,13.50
2023-04-22T22:38:13.535Z,13.40
2023-04-22T22:40:41.850Z,13.30
2023-04-22T22:43:10.220Z,13.20
2023-04-22T22:45:38.565Z,13.10
2023-04-22T22:48:07.832Z,13.00
2023-04-22T22:50:36.158Z,12.90
2023-04-22T22:53:05.855Z,12.80
2023-04-22T22:55:34.864Z,12.70
2023-04-22T22:58:03.128Z,12.60
2023-04-22T23:00:31.516Z,12.60
2023-04-22T23:02:59.951Z,12.50
2023-04-22T23:05:29.205Z,12.50
2023-04-22T23:07:57.586Z,12.40
2023-04-22T23:10:27.712Z,12.40
2023-04-22T23:12:55.947Z,12.40
2023-04-22T23:15:24.280Z,12.40
2023-04-22T23:17:52.813Z,12.40
2023-04-22T23:20:22.641Z,12.40
2023-04-22T23:22:51.399Z,12.40
2023-04-22T23:25:20.261Z,12.40
2023-04-22T23:27:51.046Z,12.40
2023-04-22T23:30:20.231Z,12.30
2023-04-22T23:32:49.833Z,12.30
2023-04-22T23:35:20.354Z,12.30
2023-04-22T23:37:52.092Z,12.30
2023-04-22T23:40:20.910Z,12.30
2023-04-22T23:42:50.654Z,12.30
2023-04-22T23:45:19.098Z,12.30
2023-04-22T23:47:47.544Z,12.30
2023-04-22T23:50:16.269Z,12.30
2023-04-22T23:52:44.469Z,12.30
2023-04-22T23:55:15.960Z,12.30
2023-04-22T23:57:44.706Z,12.30
